Search for airport 
image banner adimage banner adimage banner ad
image banner ad

IA8 - Dyersville Area

Located in Dyersville, United States

ICAO - IA8, IATA -

Data provided by Airmate  

General information

Coordinates: N42°29'46" W91°10'47"
Elevation is 980 feet MSL.
Magnetic variation is 01° East
View others Airports in Iowa

Operational data

Special qualification required
Current time UTC:
Current local time:
Weather at : KMXO - Monticello Rgnl ( 31 km )
METAR: KMXO 151035Z AUTO 00000KT 10SM CLR 12/12 A3008 RMK AO2
View NOTAMs / SUP AIP / TFR affecting this airport [VIEW]
Communications frequencies: [VIEW]

Runways:

RWY identifierQFULength (ft)Width (ft)SurfaceLDA (ft)
112700120GRASS
292700120GRASS

Airport contact information

Address: Dyersville United States

Satellite view of IA8